createdAt,value
2018-12-08T00:01:26.317Z,5.60
2018-12-08T00:03:53.977Z,5.70
2018-12-08T00:06:21.473Z,5.70
2018-12-08T00:08:48.998Z,5.70
2018-12-08T00:11:16.510Z,5.70
2018-12-08T00:13:44.034Z,5.80
2018-12-08T00:16:11.537Z,5.90
2018-12-08T00:18:39.065Z,6.00
2018-12-08T00:21:06.568Z,6.00
2018-12-08T00:23:34.089Z,6.10
2018-12-08T00:26:01.587Z,6.10
2018-12-08T00:28:29.108Z,6.10
2018-12-08T00:31:08.409Z,6.10
2018-12-08T00:33:35.953Z,6.10
2018-12-08T00:36:03.518Z,6.20
2018-12-08T00:38:31.032Z,6.10
2018-12-08T00:40:58.538Z,6.10
2018-12-08T00:43:26.175Z,6.10
2018-12-08T00:45:53.669Z,6.20
2018-12-08T00:48:21.403Z,6.20
2018-12-08T00:50:48.904Z,6.20
2018-12-08T00:53:16.420Z,6.20
2018-12-08T00:55:43.987Z,6.20
2018-12-08T00:58:11.509Z,6.20
2018-12-08T01:00:39.009Z,6.20
2018-12-08T01:03:06.527Z,6.10
2018-12-08T01:05:34.029Z,6.10
2018-12-08T01:08:01.548Z,6.10
2018-12-08T01:10:29.056Z,6.20
2018-12-08T01:12:56.645Z,6.20
2018-12-08T01:15:24.144Z,6.20
2018-12-08T01:17:51.679Z,6.20
2018-12-08T01:20:19.176Z,6.20
2018-12-08T01:22:46.701Z,6.30
2018-12-08T01:25:14.493Z,6.30
2018-12-08T01:27:41.998Z,6.30
2018-12-08T01:30:09.648Z,6.40
2018-12-08T01:32:37.153Z,6.40
2018-12-08T01:35:05.012Z,6.40
2018-12-08T01:37:32.580Z,6.40
2018-12-08T01:40:00.098Z,6.40
2018-12-08T01:42:47.308Z,6.40
2018-12-08T01:45:14.900Z,6.40
2018-12-08T01:47:42.403Z,6.40
2018-12-08T01:50:09.938Z,6.40
2018-12-08T01:52:37.449Z,6.40
2018-12-08T01:55:05.032Z,6.30
2018-12-08T01:57:32.531Z,6.30
2018-12-08T02:00:00.064Z,6.30
2018-12-08T02:02:27.560Z,6.30
2018-12-08T02:05:14.692Z,6.30
2018-12-08T02:07:42.197Z,6.30
2018-12-08T02:10:23.424Z,6.30
2018-12-08T02:22:00.606Z,6.30
2018-12-08T02:24:44.663Z,6.30
2018-12-08T02:27:12.188Z,6.30
2018-12-08T02:29:39.729Z,6.30
2018-12-08T02:32:07.264Z,6.30
2018-12-08T02:34:44.756Z,6.30
2018-12-08T02:37:31.245Z,6.20
2018-12-08T02:40:15.683Z,6.20
2018-12-08T02:43:02.455Z,6.10
2018-12-08T02:45:49.343Z,6.20
2018-12-08T03:04:36.345Z,6.00
2018-12-08T03:07:23.288Z,6.00
2018-12-08T03:09:50.804Z,5.90
2018-12-08T03:21:31.246Z,5.80
2018-12-08T03:24:15.110Z,5.80
2018-12-08T03:32:50.729Z,5.80
2018-12-08T03:35:18.270Z,5.80
2018-12-08T03:37:58.446Z,5.70
2018-12-08T03:55:46.118Z,5.90
2018-12-08T03:58:32.809Z,5.90
2018-12-08T04:01:19.285Z,6.00
2018-12-08T04:03:46.798Z,6.00
2018-12-08T04:06:14.316Z,6.00
2018-12-08T04:08:47.712Z,6.00
2018-12-08T04:26:35.328Z,6.10
2018-12-08T04:29:02.867Z,6.10
2018-12-08T04:31:30.532Z,6.10
2018-12-08T04:33:58.036Z,6.10
2018-12-08T04:39:41.514Z,6.10
2018-12-08T04:45:13.672Z,6.10
2018-12-08T04:47:41.169Z,6.20
2018-12-08T04:50:08.689Z,6.20
2018-12-08T04:55:45.445Z,6.20
2018-12-08T04:58:12.941Z,6.20
2018-12-08T05:01:01.572Z,6.20
2018-12-08T05:03:29.068Z,6.20
2018-12-08T05:05:56.585Z,6.20
2018-12-08T05:08:24.085Z,6.20
2018-12-08T05:10:51.604Z,6.20
2018-12-08T05:13:30.075Z,6.20
2018-12-08T05:16:03.827Z,6.10
2018-12-08T05:18:31.336Z,6.10
2018-12-08T05:20:58.851Z,6.10
2018-12-08T05:23:26.345Z,6.10
2018-12-08T05:29:02.911Z,6.10
2018-12-08T05:31:30.424Z,6.20
2018-12-08T05:33:57.926Z,6.20
2018-12-08T05:48:55.216Z,6.30
2018-12-08T05:51:25.661Z,6.30
2018-12-08T05:53:54.064Z,6.30
2018-12-08T05:56:21.578Z,6.20
2018-12-08T05:58:49.073Z,6.20
2018-12-08T06:01:16.592Z,6.20
2018-12-08T06:04:00.785Z,6.10
2018-12-08T06:09:37.244Z,6.10
2018-12-08T06:12:04.761Z,6.10
2018-12-08T06:14:51.531Z,6.00
2018-12-08T06:17:38.367Z,6.00
2018-12-08T06:20:25.511Z,6.00
2018-12-08T06:22:53.020Z,6.00
2018-12-08T06:25:37.045Z,6.00
2018-12-08T06:28:14.376Z,6.00
2018-12-08T06:31:01.467Z,6.10
2018-12-08T06:33:48.270Z,6.10
2018-12-08T06:36:30.798Z,6.10
2018-12-08T06:39:14.616Z,6.10
2018-12-08T06:41:42.135Z,6.10
2018-12-08T06:44:16.903Z,6.10
2018-12-08T06:47:03.275Z,6.10
2018-12-08T06:49:30.851Z,6.00
2018-12-08T06:52:18.258Z,5.90
2018-12-08T06:55:02.467Z,6.00
2018-12-08T06:57:30.018Z,6.00
2018-12-08T06:59:57.590Z,5.90
2018-12-08T07:02:41.836Z,5.90
2018-12-08T07:05:22.773Z,5.90
2018-12-08T07:08:07.309Z,5.90
2018-12-08T07:10:54.062Z,5.80
2018-12-08T07:13:21.636Z,5.80
2018-12-08T07:16:05.772Z,5.70
2018-12-08T07:18:48.200Z,5.80
2018-12-08T07:21:32.895Z,5.80
2018-12-08T07:24:13.468Z,5.70
2018-12-08T07:26:49.374Z,5.70
2018-12-08T07:29:16.872Z,5.70
2018-12-08T07:31:44.398Z,5.70
2018-12-08T07:34:25.886Z,5.70
2018-12-08T07:45:51.660Z,5.80
2018-12-08T07:48:19.193Z,5.80
2018-12-08T07:50:46.693Z,5.80
2018-12-08T07:53:24.696Z,5.80
2018-12-08T07:55:52.196Z,5.70
2018-12-08T07:58:19.784Z,5.70
2018-12-08T08:00:47.297Z,5.70
2018-12-08T08:18:38.375Z,5.50
2018-12-08T08:27:07.721Z,5.40
2018-12-08T08:29:35.217Z,5.40
2018-12-08T08:32:02.741Z,5.50
2018-12-08T08:34:31.793Z,5.50
2018-12-08T08:36:59.289Z,5.50
2018-12-08T08:39:26.808Z,5.60
2018-12-08T08:41:54.301Z,5.70
2018-12-08T08:44:21.825Z,5.70
2018-12-08T08:46:49.324Z,5.70
2018-12-08T08:49:16.848Z,5.80
2018-12-08T08:51:44.352Z,5.70
2018-12-08T08:54:11.878Z,5.70
2018-12-08T08:56:39.376Z,5.60
2018-12-08T08:59:06.899Z,5.70
2018-12-08T09:01:34.405Z,5.70
2018-12-08T09:04:01.925Z,5.80
2018-12-08T09:06:29.425Z,5.80
2018-12-08T09:08:57.001Z,5.80
2018-12-08T09:11:24.506Z,5.80
2018-12-08T09:13:52.036Z,5.80
2018-12-08T09:16:34.317Z,5.80
2018-12-08T09:19:01.850Z,5.80
2018-12-08T09:21:29.421Z,5.90
2018-12-08T09:23:56.941Z,5.90
2018-12-08T09:26:24.440Z,5.90
2018-12-08T09:35:10.455Z,6.00
2018-12-08T09:37:38.022Z,6.10
2018-12-08T09:40:06.181Z,6.10
2018-12-08T09:42:33.745Z,6.10
2018-12-08T09:45:01.277Z,6.10
2018-12-08T09:47:28.872Z,6.20
2018-12-08T09:49:56.397Z,6.20
2018-12-08T09:52:23.891Z,6.20
2018-12-08T09:54:51.416Z,6.30
2018-12-08T09:57:18.921Z,6.30
2018-12-08T09:59:46.441Z,6.40
2018-12-08T10:02:13.941Z,6.40
2018-12-08T10:05:00.311Z,6.50
2018-12-08T10:07:27.808Z,6.40
2018-12-08T10:09:55.328Z,6.40
2018-12-08T10:12:22.820Z,6.30
2018-12-08T10:14:50.420Z,6.30
2018-12-08T10:17:17.916Z,6.30
2018-12-08T10:19:45.431Z,6.30
2018-12-08T10:22:12.924Z,6.30
2018-12-08T10:24:40.451Z,6.30
2018-12-08T10:27:07.984Z,6.30
2018-12-08T10:29:35.625Z,6.40
2018-12-08T10:32:13.284Z,6.40
2018-12-08T10:34:41.020Z,6.40
2018-12-08T10:37:11.556Z,6.40
2018-12-08T10:39:39.113Z,6.30
2018-12-08T10:42:06.690Z,6.30
2018-12-08T10:44:34.315Z,6.30
2018-12-08T10:47:01.894Z,6.40
2018-12-08T10:49:29.417Z,6.30
2018-12-08T10:51:56.976Z,6.30
2018-12-08T10:54:24.965Z,6.30
2018-12-08T10:56:52.527Z,6.30
2018-12-08T10:59:20.060Z,6.40
2018-12-08T11:01:53.254Z,6.40
2018-12-08T11:04:20.767Z,6.40
2018-12-08T11:06:48.260Z,6.40
2018-12-08T11:09:15.804Z,6.40
2018-12-08T11:11:43.308Z,6.40
2018-12-08T11:14:10.829Z,6.40
2018-12-08T11:16:38.337Z,6.40
2018-12-08T11:19:05.888Z,6.40
2018-12-08T11:21:33.380Z,6.40
2018-12-08T11:24:00.880Z,6.40
2018-12-08T11:26:28.402Z,6.40
2018-12-08T11:28:55.901Z,6.50
2018-12-08T11:31:24.281Z,6.50
2018-12-08T11:33:51.795Z,6.50
2018-12-08T11:36:19.330Z,6.50
2018-12-08T11:38:46.841Z,6.60
2018-12-08T11:41:14.385Z,6.60
2018-12-08T11:43:58.345Z,6.60
2018-12-08T11:46:25.881Z,6.60
2018-12-08T11:49:14.921Z,6.70
2018-12-08T11:55:03.926Z,6.60
2018-12-08T11:57:47.840Z,6.70
2018-12-08T12:09:23.773Z,6.70
2018-12-08T12:11:51.354Z,6.70
2018-12-08T12:14:22.781Z,6.80
2018-12-08T12:19:43.101Z,6.80
2018-12-08T12:22:10.632Z,6.80
2018-12-08T12:24:38.146Z,6.80
2018-12-08T12:27:05.677Z,6.80
2018-12-08T12:35:43.245Z,6.90
2018-12-08T12:50:41.943Z,6.80
2018-12-08T12:53:28.628Z,6.80
2018-12-08T12:55:56.148Z,6.80
2018-12-08T12:58:36.293Z,6.80
2018-12-08T13:01:10.042Z,6.80
2018-12-08T13:03:37.554Z,6.80
2018-12-08T13:06:05.092Z,6.90
2018-12-08T13:08:32.590Z,6.90
2018-12-08T13:11:00.122Z,6.90
2018-12-08T13:13:27.627Z,6.90
2018-12-08T13:15:55.149Z,6.90
2018-12-08T13:18:28.690Z,6.90
2018-12-08T13:21:08.700Z,6.90
2018-12-08T13:23:55.489Z,6.90
2018-12-08T13:26:29.650Z,6.90
2018-12-08T13:29:16.013Z,6.90
2018-12-08T13:32:00.595Z,6.90
2018-12-08T13:34:42.720Z,6.90
2018-12-08T13:37:16.839Z,6.90
2018-12-08T13:39:50.035Z,6.90
2018-12-08T13:42:25.812Z,6.90
2018-12-08T13:45:06.191Z,7.00
2018-12-08T13:47:43.789Z,7.00
2018-12-08T13:50:28.120Z,7.00
2018-12-08T13:53:14.875Z,7.00
2018-12-08T13:56:01.512Z,7.00
2018-12-08T13:58:48.188Z,7.10
2018-12-08T14:01:22.100Z,7.10
2018-12-08T14:04:08.376Z,7.10
2018-12-08T14:06:52.899Z,7.10
2018-12-08T14:09:39.281Z,7.10
2018-12-08T14:12:23.629Z,7.10
2018-12-08T14:15:07.604Z,7.10
2018-12-08T14:17:54.037Z,7.10
2018-12-08T14:20:23.264Z,7.10
2018-12-08T14:22:50.869Z,7.10
2018-12-08T14:25:18.522Z,7.00
2018-12-08T14:27:46.045Z,7.10
2018-12-08T14:30:13.612Z,7.10
2018-12-08T14:32:41.145Z,7.10
2018-12-08T14:35:08.645Z,7.20
2018-12-08T14:37:36.182Z,7.10
2018-12-08T14:40:05.221Z,7.10
2018-12-08T14:42:32.749Z,7.10
2018-12-08T14:45:00.319Z,7.20
2018-12-08T14:47:27.844Z,7.10
2018-12-08T14:49:55.355Z,7.10
2018-12-08T14:52:22.901Z,7.20
2018-12-08T14:54:50.400Z,7.20
2018-12-08T14:57:17.919Z,7.30
2018-12-08T14:59:45.432Z,7.40
2018-12-08T15:02:12.959Z,7.40
2018-12-08T15:04:40.463Z,7.30
2018-12-08T15:07:21.249Z,7.30
2018-12-08T15:10:11.525Z,7.30
2018-12-08T15:12:58.359Z,7.30
2018-12-08T15:15:33.577Z,7.30
2018-12-08T15:18:18.265Z,7.30
2018-12-08T15:24:04.682Z,7.30
2018-12-08T15:26:51.431Z,7.30
2018-12-08T15:29:35.224Z,7.30
2018-12-08T15:32:02.772Z,7.30
2018-12-08T15:37:47.124Z,7.30
2018-12-08T15:40:21.740Z,7.30
2018-12-08T15:42:54.995Z,7.40
2018-12-08T15:45:26.015Z,7.40
2018-12-08T15:47:56.796Z,7.40
2018-12-08T15:50:30.717Z,7.40
2018-12-08T15:53:06.343Z,7.40
2018-12-08T15:55:41.264Z,7.30
2018-12-08T15:58:14.560Z,7.40
2018-12-08T16:01:01.304Z,7.40
2018-12-08T16:03:32.871Z,7.40
2018-12-08T16:06:07.386Z,7.40
2018-12-08T16:08:38.827Z,7.40
2018-12-08T16:11:13.515Z,7.30
2018-12-08T16:13:47.414Z,7.40
2018-12-08T16:16:20.835Z,7.30
2018-12-08T16:19:11.487Z,7.40
2018-12-08T16:21:49.100Z,7.40
2018-12-08T16:24:23.052Z,7.30
2018-12-08T16:39:40.764Z,7.40
2018-12-08T16:42:19.207Z,7.30
2018-12-08T16:45:03.400Z,7.40
2018-12-08T16:47:36.936Z,7.40
2018-12-08T16:53:09.353Z,7.40
2018-12-08T16:55:49.817Z,7.40
2018-12-08T16:58:40.788Z,7.40
2018-12-08T17:01:14.494Z,7.50
2018-12-08T17:04:05.169Z,7.50
2018-12-08T17:06:38.554Z,7.50
2018-12-08T17:09:12.395Z,7.40
2018-12-08T17:11:47.232Z,7.50
2018-12-08T17:14:23.228Z,7.50
2018-12-08T17:16:51.646Z,7.50
2018-12-08T17:19:25.098Z,7.50
2018-12-08T17:21:52.600Z,7.40
2018-12-08T17:24:34.809Z,7.40
2018-12-08T17:29:58.443Z,7.30
2018-12-08T17:32:31.606Z,7.30
2018-12-08T17:35:17.971Z,7.30
2018-12-08T17:37:56.518Z,7.20
2018-12-08T17:48:07.563Z,7.20
2018-12-08T17:50:41.462Z,7.20
2018-12-08T17:53:12.240Z,7.20
2018-12-08T17:55:45.879Z,7.20
2018-12-08T17:58:20.784Z,7.20
2018-12-08T18:03:48.092Z,7.10
2018-12-08T18:06:15.585Z,7.20
2018-12-08T18:09:00.269Z,7.10
2018-12-08T18:11:27.784Z,7.10
2018-12-08T18:13:55.312Z,7.10
2018-12-08T18:16:29.425Z,7.20
2018-12-08T18:18:56.940Z,7.10
2018-12-08T18:21:24.554Z,7.20
2018-12-08T18:26:45.495Z,7.10
2018-12-08T18:29:13.013Z,7.10
2018-12-08T18:34:43.849Z,7.20
2018-12-08T18:46:37.300Z,7.10
2018-12-08T18:52:18.503Z,7.20
2018-12-08T18:58:03.945Z,7.20
2018-12-08T19:00:51.231Z,7.10
2018-12-08T19:03:19.073Z,7.20
2018-12-08T19:05:52.306Z,7.20
2018-12-08T19:08:26.108Z,7.20
2018-12-08T19:11:13.061Z,7.20
2018-12-08T19:13:43.608Z,7.20
2018-12-08T19:16:16.817Z,7.20
2018-12-08T19:18:44.452Z,7.30
2018-12-08T19:24:34.337Z,7.30
2018-12-08T19:27:01.833Z,7.30
2018-12-08T19:29:35.760Z,7.30
2018-12-08T19:32:10.264Z,7.30
2018-12-08T19:34:54.909Z,7.40
2018-12-08T19:37:41.432Z,7.40
2018-12-08T19:40:15.325Z,7.40
2018-12-08T19:42:45.408Z,7.40
2018-12-08T19:45:21.316Z,7.50
2018-12-08T19:47:57.394Z,7.50
2018-12-08T19:50:33.446Z,7.50
2018-12-08T19:53:10.621Z,7.50
2018-12-08T19:55:55.053Z,7.50
2018-12-08T19:58:32.283Z,7.60
2018-12-08T20:01:08.332Z,7.60
2018-12-08T20:03:42.619Z,7.60
2018-12-08T20:06:23.389Z,7.60
2018-12-08T20:09:07.688Z,7.60
2018-12-08T20:11:43.333Z,7.60
2018-12-08T20:14:17.448Z,7.60
2018-12-08T20:16:59.148Z,7.60
2018-12-08T20:19:32.696Z,7.60
2018-12-08T20:22:06.592Z,7.70
2018-12-08T20:24:39.915Z,7.70
2018-12-08T20:27:13.090Z,7.70
2018-12-08T20:29:46.491Z,7.80
2018-12-08T20:32:20.471Z,7.80
2018-12-08T20:34:53.706Z,7.80
2018-12-08T20:37:28.069Z,7.80
2018-12-08T20:40:01.707Z,7.80
2018-12-08T20:42:35.802Z,7.80
2018-12-08T20:45:10.608Z,7.80
2018-12-08T20:47:43.791Z,7.90
2018-12-08T20:50:17.411Z,7.90
2018-12-08T20:52:58.168Z,7.90
2018-12-08T20:58:06.313Z,8.00
2018-12-08T21:00:46.762Z,8.00
2018-12-08T21:03:21.048Z,8.00
2018-12-08T21:06:07.581Z,8.00
2018-12-08T21:08:40.877Z,8.00
2018-12-08T21:11:18.105Z,8.00
2018-12-08T21:14:02.206Z,8.00
2018-12-08T21:16:33.114Z,8.00
2018-12-08T21:19:07.095Z,8.10
2018-12-08T21:21:41.347Z,8.10
2018-12-08T21:24:15.391Z,8.20
2018-12-08T21:26:49.068Z,8.20
2018-12-08T21:29:23.172Z,8.20
2018-12-08T21:31:57.287Z,8.20
2018-12-08T21:34:31.417Z,8.30
2018-12-08T21:37:05.567Z,8.20
2018-12-08T21:39:39.512Z,8.20
2018-12-08T21:42:12.855Z,8.20
2018-12-08T21:44:46.816Z,8.20
2018-12-08T21:47:20.047Z,8.20
2018-12-08T21:50:04.120Z,8.20
2018-12-08T21:52:38.183Z,8.20
2018-12-08T21:55:29.452Z,8.20
2018-12-08T21:58:02.759Z,8.20
2018-12-08T22:00:35.963Z,8.20
2018-12-08T22:03:07.104Z,8.10
2018-12-08T22:05:40.717Z,8.10
2018-12-08T22:08:11.563Z,8.20
2018-12-08T22:10:51.859Z,8.20
2018-12-08T22:13:25.633Z,8.20
2018-12-08T22:16:00.695Z,8.20
2018-12-08T22:18:34.088Z,8.20
2018-12-08T22:21:07.712Z,8.20
2018-12-08T22:23:41.292Z,8.20
2018-12-08T22:32:11.464Z,8.30
2018-12-08T22:34:42.684Z,8.40
2018-12-08T22:37:16.207Z,8.40
2018-12-08T22:39:50.143Z,8.30
2018-12-08T22:42:23.451Z,8.30
2018-12-08T22:45:07.617Z,8.40
2018-12-08T22:47:58.532Z,8.40
2018-12-08T22:50:31.732Z,8.40
2018-12-08T22:53:16.184Z,8.40
2018-12-08T22:55:49.279Z,8.40
2018-12-08T23:00:54.831Z,8.40
2018-12-08T23:03:26.278Z,8.50
2018-12-08T23:05:59.920Z,8.50
2018-12-08T23:08:46.669Z,8.60
2018-12-08T23:11:20.296Z,8.50
2018-12-08T23:13:56.345Z,8.60
2018-12-08T23:16:30.320Z,8.60
2018-12-08T23:19:04.023Z,8.60
2018-12-08T23:24:37.445Z,8.60
2018-12-08T23:27:11.144Z,8.60
2018-12-08T23:29:51.676Z,8.60
2018-12-08T23:32:26.299Z,8.70
2018-12-08T23:35:00.885Z,8.80
2018-12-08T23:37:32.522Z,8.90
2018-12-08T23:40:07.300Z,8.90
2018-12-08T23:42:42.819Z,8.90
2018-12-08T23:45:11.604Z,8.90
2018-12-08T23:47:39.115Z,8.90
2018-12-08T23:50:06.831Z,8.90
2018-12-08T23:52:34.339Z,8.80
2018-12-08T23:55:01.832Z,8.80
2018-12-08T23:57:29.343Z,8.80
2018-12-08T23:59:56.842Z,8.80
